West Bend, WI

04:23 PM CDT die 31o October, anno 2014 (GMT -0500)
APRSWXNET West Bend WI US | Change Station
CLOSE
Current Station
Personal Weather Stations
Location: West Bend, WI
Elevation: 959 ft
Nearby Weather Stations
Active Advisory: Wind Advisory

Elev 959 ft 43.44 °N, 88.20 °W | Updated 18 minutes ago

Overcast
Aequaliter Nubila
37 °F
Feels Like 32 °F
N
6
Ventus Variabilis Ventus from Magis Aquilo quam Zephyrus
Gusts 20.0 mph

Hodie
High -- | Low -- °F
--% Chance of Precip.
Yesterday
High -- | Low -- °F
Precip. -- in
7:26 AM 5:45 PM
First Quarter, 59% visible
Pressio 30.30 in
Visibilitas 10.0 milia passuum
Clouds Aequaliter Nubila 4700 ft
Frigus Venti 32 °F
Frigus in quo Ros apparet 20 °F
Umor 49%
Rainfall 0.00 in
Snow Depth Not available.
UV 0 out of 12
Pollen .40 out of 12
Air Quality Not available.
Flu Activity Not available.
METAR KETB 312055Z AUTO 36018G28KT 10SM OVC047 02/M07 A3030 RMK AO2

More Conditions Fewer Conditions

Pressio 30.30 in
Visibilitas 10.0 milia passuum
Clouds Aequaliter Nubila 4700 ft
Frigus Venti 32 °F
Frigus in quo Ros apparet 20 °F
Umor 49%
Rainfall 0.00 in
Snow Depth Not available.
UV 0 out of 12
Pollen .40 out of 12
Air Quality Not available.
Flu Activity Not available.
METAR KETB 312055Z AUTO 36018G28KT 10SM OVC047 02/M07 A3030 RMK AO2

More Conditions Fewer Conditions

10-Day Weather Forecast

Almanac

Astronomy

Oct. 31, 2014 Rise Set
Actual Time
Civil Twilight
Nautical Twilight
Astronomical Twilight
Moon
Length Of Visible Light
Length of Day
Tomorrow will be .
, % of the Moon is Illuminated

Today's Extremes

State Highs State Lows

Community

WunderPhotos

Upload Photos

1,766,734 photos uploaded!

WunderBlogs® & News

Nearby

Air Quality

  Air Quality AQ Index Pollutant
Not available.

Snow Depth

Station Depth Elevation

Earthquake Activity

City Distance Mag. Time & Date
Minimum magnitude displayed is 2.5.

Coastal Water Temperatures

Locus Calor

Nearby Weather Stations